sensor_id;sensor_type;location;lat;lon;timestamp;P1;durP1;ratioP1;P2;durP2;ratioP2
55112;SDS011;41006;50.920;3.456;2023-04-24T00:00:22;30.90;;;24.48;;
55112;SDS011;41006;50.920;3.456;2023-04-24T00:00:53;33.97;;;24.15;;
55112;SDS011;41006;50.920;3.456;2023-04-24T00:01:28;30.65;;;24.25;;
55112;SDS011;41006;50.920;3.456;2023-04-24T00:01:59;32.17;;;24.40;;
55112;SDS011;41006;50.920;3.456;2023-04-24T00:02:29;34.63;;;25.40;;
55112;SDS011;41006;50.920;3.456;2023-04-24T00:03:00;28.42;;;24.73;;
55112;SDS011;41006;50.920;3.456;2023-04-24T00:03:33;29.60;;;24.60;;
55112;SDS011;41006;50.920;3.456;2023-04-24T00:04:03;29.88;;;23.48;;
55112;SDS011;41006;50.920;3.456;2023-04-24T00:04:33;33.78;;;25.35;;
55112;SDS011;41006;50.920;3.456;2023-04-24T00:05:06;28.88;;;22.75;;
55112;SDS011;41006;50.920;3.456;2023-04-24T00:05:39;25.42;;;21.38;;
55112;SDS011;41006;50.920;3.456;2023-04-24T00:06:10;28.38;;;23.02;;
55112;SDS011;41006;50.920;3.456;2023-04-24T00:06:40;23.95;;;20.67;;
55112;SDS011;41006;50.920;3.456;2023-04-24T00:07:15;26.63;;;23.55;;
55112;SDS011;41006;50.920;3.456;2023-04-24T00:07:50;27.92;;;22.40;;
55112;SDS011;41006;50.920;3.456;2023-04-24T00:08:24;27.15;;;21.50;;
55112;SDS011;41006;50.920;3.456;2023-04-24T00:08:56;23.92;;;21.38;;
55112;SDS011;41006;50.920;3.456;2023-04-24T00:09:26;23.88;;;21.38;;
55112;SDS011;41006;50.920;3.456;2023-04-24T00:09:57;24.20;;;21.88;;
55112;SDS011;41006;50.920;3.456;2023-04-24T00:10:27;22.50;;;20.17;;
55112;SDS011;41006;50.920;3.456;2023-04-24T00:11:00;22.73;;;20.33;;
55112;SDS011;41006;50.920;3.456;2023-04-24T00:11:33;20.83;;;18.73;;
55112;SDS011;41006;50.920;3.456;2023-04-24T00:12:03;22.13;;;20.15;;
55112;SDS011;41006;50.920;3.456;2023-04-24T00:12:38;22.13;;;19.85;;
55112;SDS011;41006;50.920;3.456;2023-04-24T00:13:08;20.17;;;18.05;;
55112;SDS011;41006;50.920;3.456;2023-04-24T00:13:40;23.35;;;20.92;;
55112;SDS011;41006;50.920;3.456;2023-04-24T00:14:10;21.38;;;19.23;;
55112;SDS011;41006;50.920;3.456;2023-04-24T00:14:43;21.98;;;19.60;;
55112;SDS011;41006;50.920;3.456;2023-04-24T00:15:16;20.45;;;18.48;;
55112;SDS011;41006;50.920;3.456;2023-04-24T00:15:49;21.30;;;19.30;;
55112;SDS011;41006;50.920;3.456;2023-04-24T00:16:22;20.25;;;18.30;;
55112;SDS011;41006;50.920;3.456;2023-04-24T00:16:52;19.60;;;17.80;;
55112;SDS011;41006;50.920;3.456;2023-04-24T00:17:23;20.00;;;18.30;;
55112;SDS011;41006;50.920;3.456;2023-04-24T00:17:55;19.40;;;17.70;;
55112;SDS011;41006;50.920;3.456;2023-04-24T00:18:31;19.88;;;17.88;;
55112;SDS011;41006;50.920;3.456;2023-04-24T00:19:02;20.40;;;18.77;;
55112;SDS011;41006;50.920;3.456;2023-04-24T00:19:32;18.88;;;17.23;;
55112;SDS011;41006;50.920;3.456;2023-04-24T00:20:05;19.92;;;18.00;;
55112;SDS011;41006;50.920;3.456;2023-04-24T00:20:37;18.63;;;17.00;;
55112;SDS011;41006;50.920;3.456;2023-04-24T00:21:07;19.60;;;17.73;;
55112;SDS011;41006;50.920;3.456;2023-04-24T00:21:38;18.70;;;17.20;;
55112;SDS011;41006;50.920;3.456;2023-04-24T00:22:10;19.13;;;17.60;;
55112;SDS011;41006;50.920;3.456;2023-04-24T00:22:43;20.60;;;18.73;;
55112;SDS011;41006;50.920;3.456;2023-04-24T00:23:16;18.67;;;17.20;;
55112;SDS011;41006;50.920;3.456;2023-04-24T00:23:46;18.67;;;17.17;;
55112;SDS011;41006;50.920;3.456;2023-04-24T00:24:19;18.70;;;17.40;;
55112;SDS011;41006;50.920;3.456;2023-04-24T00:24:51;18.73;;;17.35;;
55112;SDS011;41006;50.920;3.456;2023-04-24T00:25:22;18.08;;;16.70;;
55112;SDS011;41006;50.920;3.456;2023-04-24T00:25:52;18.88;;;17.20;;
55112;SDS011;41006;50.920;3.456;2023-04-24T00:26:24;17.58;;;16.20;;
55112;SDS011;41006;50.920;3.456;2023-04-24T00:26:57;18.38;;;16.88;;
55112;SDS011;41006;50.920;3.456;2023-04-24T00:27:28;19.17;;;17.88;;
55112;SDS011;41006;50.920;3.456;2023-04-24T00:27:58;19.08;;;17.48;;
55112;SDS011;41006;50.920;3.456;2023-04-24T00:28:30;18.55;;;17.17;;
55112;SDS011;41006;50.920;3.456;2023-04-24T00:29:01;19.13;;;17.80;;
55112;SDS011;41006;50.920;3.456;2023-04-24T00:29:31;19.40;;;17.83;;
55112;SDS011;41006;50.920;3.456;2023-04-24T00:30:01;18.58;;;17.17;;
55112;SDS011;41006;50.920;3.456;2023-04-24T00:30:32;18.85;;;17.25;;
55112;SDS011;41006;50.920;3.456;2023-04-24T00:31:05;19.40;;;18.00;;
55112;SDS011;41006;50.920;3.456;2023-04-24T00:31:35;19.30;;;17.80;;
55112;SDS011;41006;50.920;3.456;2023-04-24T00:32:08;18.63;;;17.15;;
55112;SDS011;41006;50.920;3.456;2023-04-24T00:32:38;18.70;;;17.20;;
55112;SDS011;41006;50.920;3.456;2023-04-24T00:33:11;18.08;;;16.73;;
55112;SDS011;41006;50.920;3.456;2023-04-24T00:33:41;17.20;;;16.02;;
55112;SDS011;41006;50.920;3.456;2023-04-24T00:34:14;17.35;;;16.08;;
55112;SDS011;41006;50.920;3.456;2023-04-24T00:34:44;17.17;;;16.08;;
55112;SDS011;41006;50.920;3.456;2023-04-24T00:35:14;18.35;;;16.52;;
55112;SDS011;41006;50.920;3.456;2023-04-24T00:35:47;18.45;;;17.05;;
55112;SDS011;41006;50.920;3.456;2023-04-24T00:36:20;18.08;;;16.48;;
55112;SDS011;41006;50.920;3.456;2023-04-24T00:36:50;17.73;;;16.17;;
55112;SDS011;41006;50.920;3.456;2023-04-24T00:37:22;16.95;;;15.55;;
55112;SDS011;41006;50.920;3.456;2023-04-24T00:37:54;16.90;;;15.63;;
55112;SDS011;41006;50.920;3.456;2023-04-24T00:38:27;17.10;;;15.82;;
55112;SDS011;41006;50.920;3.456;2023-04-24T00:38:57;16.50;;;15.20;;
55112;SDS011;41006;50.920;3.456;2023-04-24T00:39:27;16.45;;;14.82;;
55112;SDS011;41006;50.920;3.456;2023-04-24T00:40:00;16.27;;;14.95;;
55112;SDS011;41006;50.920;3.456;2023-04-24T00:40:33;16.42;;;15.13;;
55112;SDS011;41006;50.920;3.456;2023-04-24T00:41:06;16.60;;;15.07;;
55112;SDS011;41006;50.920;3.456;2023-04-24T00:41:39;16.88;;;15.18;;
55112;SDS011;41006;50.920;3.456;2023-04-24T00:42:11;16.92;;;15.55;;
55112;SDS011;41006;50.920;3.456;2023-04-24T00:42:42;17.85;;;16.40;;
55112;SDS011;41006;50.920;3.456;2023-04-24T00:43:13;18.23;;;16.35;;
55112;SDS011;41006;50.920;3.456;2023-04-24T00:43:43;17.50;;;16.10;;
55112;SDS011;41006;50.920;3.456;2023-04-24T00:44:13;17.83;;;16.52;;
55112;SDS011;41006;50.920;3.456;2023-04-24T00:44:46;17.55;;;15.82;;
55112;SDS011;41006;50.920;3.456;2023-04-24T00:45:17;18.52;;;17.00;;
55112;SDS011;41006;50.920;3.456;2023-04-24T00:45:47;18.17;;;16.52;;
55112;SDS011;41006;50.920;3.456;2023-04-24T00:46:17;19.30;;;17.55;;
55112;SDS011;41006;50.920;3.456;2023-04-24T00:46:48;18.17;;;16.60;;
55112;SDS011;41006;50.920;3.456;2023-04-24T00:47:21;18.15;;;16.65;;
55112;SDS011;41006;50.920;3.456;2023-04-24T00:47:52;19.17;;;17.42;;
55112;SDS011;41006;50.920;3.456;2023-04-24T00:48:24;18.33;;;16.88;;
55112;SDS011;41006;50.920;3.456;2023-04-24T00:48:55;18.83;;;17.33;;
55112;SDS011;41006;50.920;3.456;2023-04-24T00:49:26;19.27;;;17.52;;
55112;SDS011;41006;50.920;3.456;2023-04-24T00:49:59;18.75;;;16.95;;
55112;SDS011;41006;50.920;3.456;2023-04-24T00:50:30;17.40;;;15.90;;
55112;SDS011;41006;50.920;3.456;2023-04-24T00:51:00;16.38;;;15.07;;
55112;SDS011;41006;50.920;3.456;2023-04-24T00:51:33;17.10;;;15.77;;
55112;SDS011;41006;50.920;3.456;2023-04-24T00:52:06;18.50;;;16.83;;
55112;SDS011;41006;50.920;3.456;2023-04-24T00:52:38;17.50;;;16.15;;
55112;SDS011;41006;50.920;3.456;2023-04-24T00:53:11;17.25;;;15.88;;
55112;SDS011;41006;50.920;3.456;2023-04-24T00:53:44;16.40;;;14.85;;
55112;SDS011;41006;50.920;3.456;2023-04-24T00:54:18;16.17;;;14.98;;
55112;SDS011;41006;50.920;3.456;2023-04-24T00:54:52;16.75;;;15.32;;
55112;SDS011;41006;50.920;3.456;2023-04-24T00:55:23;16.73;;;15.32;;
55112;SDS011;41006;50.920;3.456;2023-04-24T00:55:54;16.70;;;15.27;;
55112;SDS011;41006;50.920;3.456;2023-04-24T00:56:25;16.73;;;15.38;;
55112;SDS011;41006;50.920;3.456;2023-04-24T00:56:55;16.23;;;14.82;;
55112;SDS011;41006;50.920;3.456;2023-04-24T00:57:29;15.88;;;14.35;;
55112;SDS011;41006;50.920;3.456;2023-04-24T00:58:01;15.63;;;14.02;;
55112;SDS011;41006;50.920;3.456;2023-04-24T00:58:32;14.93;;;13.82;;
55112;SDS011;41006;50.920;3.456;2023-04-24T00:59:02;14.00;;;12.80;;
55112;SDS011;41006;50.920;3.456;2023-04-24T00:59:33;14.73;;;13.63;;
55112;SDS011;41006;50.920;3.456;2023-04-24T01:00:04;14.80;;;13.63;;
55112;SDS011;41006;50.920;3.456;2023-04-24T01:00:35;14.98;;;13.80;;
55112;SDS011;41006;50.920;3.456;2023-04-24T01:01:09;15.40;;;14.27;;
55112;SDS011;41006;50.920;3.456;2023-04-24T01:01:42;15.73;;;14.52;;
55112;SDS011;41006;50.920;3.456;2023-04-24T01:02:13;16.15;;;14.85;;
55112;SDS011;41006;50.920;3.456;2023-04-24T01:02:45;16.80;;;15.43;;
55112;SDS011;41006;50.920;3.456;2023-04-24T01:03:16;16.42;;;15.13;;
55112;SDS011;41006;50.920;3.456;2023-04-24T01:03:47;15.48;;;14.38;;
55112;SDS011;41006;50.920;3.456;2023-04-24T01:04:18;15.65;;;14.45;;
55112;SDS011;41006;50.920;3.456;2023-04-24T01:04:51;16.40;;;15.10;;
55112;SDS011;41006;50.920;3.456;2023-04-24T01:05:24;18.33;;;16.55;;
55112;SDS011;41006;50.920;3.456;2023-04-24T01:05:57;16.08;;;14.73;;
55112;SDS011;41006;50.920;3.456;2023-04-24T01:06:32;16.20;;;14.80;;
55112;SDS011;41006;50.920;3.456;2023-04-24T01:07:05;15.98;;;14.55;;
55112;SDS011;41006;50.920;3.456;2023-04-24T01:07:41;16.55;;;15.15;;
55112;SDS011;41006;50.920;3.456;2023-04-24T01:08:16;16.63;;;15.23;;
55112;SDS011;41006;50.920;3.456;2023-04-24T01:08:48;15.52;;;14.23;;
55112;SDS011;41006;50.920;3.456;2023-04-24T01:09:19;17.20;;;15.68;;
55112;SDS011;41006;50.920;3.456;2023-04-24T01:09:53;17.60;;;16.10;;
55112;SDS011;41006;50.920;3.456;2023-04-24T01:10:24;19.05;;;17.30;;
55112;SDS011;41006;50.920;3.456;2023-04-24T01:10:55;18.38;;;16.77;;
55112;SDS011;41006;50.920;3.456;2023-04-24T01:11:26;17.83;;;16.33;;
55112;SDS011;41006;50.920;3.456;2023-04-24T01:11:57;18.40;;;16.70;;
55112;SDS011;41006;50.920;3.456;2023-04-24T01:12:27;18.42;;;16.85;;
55112;SDS011;41006;50.920;3.456;2023-04-24T01:13:00;16.73;;;15.35;;
55112;SDS011;41006;50.920;3.456;2023-04-24T01:13:31;17.55;;;15.88;;
55112;SDS011;41006;50.920;3.456;2023-04-24T01:14:04;17.33;;;16.02;;
55112;SDS011;41006;50.920;3.456;2023-04-24T01:14:38;18.67;;;17.00;;
55112;SDS011;41006;50.920;3.456;2023-04-24T01:15:09;19.25;;;17.70;;
55112;SDS011;41006;50.920;3.456;2023-04-24T01:15:39;18.35;;;16.85;;
55112;SDS011;41006;50.920;3.456;2023-04-24T01:16:12;18.60;;;17.10;;
55112;SDS011;41006;50.920;3.456;2023-04-24T01:16:43;19.08;;;17.27;;
55112;SDS011;41006;50.920;3.456;2023-04-24T01:17:13;19.58;;;17.95;;
55112;SDS011;41006;50.920;3.456;2023-04-24T01:17:43;19.45;;;17.85;;
55112;SDS011;41006;50.920;3.456;2023-04-24T01:18:16;19.95;;;18.13;;
55112;SDS011;41006;50.920;3.456;2023-04-24T01:18:46;20.33;;;18.48;;
55112;SDS011;41006;50.920;3.456;2023-04-24T01:19:17;20.98;;;19.17;;
55112;SDS011;41006;50.920;3.456;2023-04-24T01:19:48;20.23;;;18.58;;
55112;SDS011;41006;50.920;3.456;2023-04-24T01:20:18;19.48;;;17.50;;
55112;SDS011;41006;50.920;3.456;2023-04-24T01:20:49;20.05;;;18.02;;
55112;SDS011;41006;50.920;3.456;2023-04-24T01:21:23;18.40;;;16.90;;
55112;SDS011;41006;50.920;3.456;2023-04-24T01:21:58;18.77;;;17.10;;
55112;SDS011;41006;50.920;3.456;2023-04-24T01:22:28;20.42;;;18.05;;
55112;SDS011;41006;50.920;3.456;2023-04-24T01:22:58;20.48;;;18.45;;
55112;SDS011;41006;50.920;3.456;2023-04-24T01:23:31;19.73;;;17.92;;
55112;SDS011;41006;50.920;3.456;2023-04-24T01:24:02;19.92;;;17.95;;
55112;SDS011;41006;50.920;3.456;2023-04-24T01:24:32;20.92;;;19.00;;
55112;SDS011;41006;50.920;3.456;2023-04-24T01:25:05;21.35;;;19.35;;
55112;SDS011;41006;50.920;3.456;2023-04-24T01:25:38;19.45;;;17.65;;
55112;SDS011;41006;50.920;3.456;2023-04-24T01:26:09;20.88;;;18.77;;
55112;SDS011;41006;50.920;3.456;2023-04-24T01:26:39;20.92;;;18.92;;
55112;SDS011;41006;50.920;3.456;2023-04-24T01:27:10;18.48;;;16.88;;
55112;SDS011;41006;50.920;3.456;2023-04-24T01:27:40;20.73;;;18.67;;
55112;SDS011;41006;50.920;3.456;2023-04-24T01:28:10;21.10;;;19.10;;
55112;SDS011;41006;50.920;3.456;2023-04-24T01:28:40;21.40;;;19.30;;
55112;SDS011;41006;50.920;3.456;2023-04-24T01:29:14;24.48;;;21.70;;
55112;SDS011;41006;50.920;3.456;2023-04-24T01:29:47;24.50;;;21.92;;
55112;SDS011;41006;50.920;3.456;2023-04-24T01:30:19;22.58;;;20.50;;
55112;SDS011;41006;50.920;3.456;2023-04-24T01:30:49;22.52;;;19.80;;
55112;SDS011;41006;50.920;3.456;2023-04-24T01:31:20;25.25;;;21.40;;
55112;SDS011;41006;50.920;3.456;2023-04-24T01:31:50;22.50;;;20.05;;
55112;SDS011;41006;50.920;3.456;2023-04-24T01:32:23;24.60;;;22.02;;
55112;SDS011;41006;50.920;3.456;2023-04-24T01:32:54;25.10;;;22.45;;
55112;SDS011;41006;50.920;3.456;2023-04-24T01:33:25;24.30;;;20.55;;
55112;SDS011;41006;50.920;3.456;2023-04-24T01:34:00;24.42;;;22.23;;
55112;SDS011;41006;50.920;3.456;2023-04-24T01:34:33;25.08;;;22.52;;
55112;SDS011;41006;50.920;3.456;2023-04-24T01:35:06;24.40;;;21.88;;
55112;SDS011;41006;50.920;3.456;2023-04-24T01:35:39;24.60;;;21.17;;
55112;SDS011;41006;50.920;3.456;2023-04-24T01:36:10;25.40;;;22.90;;
55112;SDS011;41006;50.920;3.456;2023-04-24T01:36:45;25.75;;;22.52;;
55112;SDS011;41006;50.920;3.456;2023-04-24T01:37:16;24.35;;;21.70;;
55112;SDS011;41006;50.920;3.456;2023-04-24T01:37:46;23.85;;;21.48;;
55112;SDS011;41006;50.920;3.456;2023-04-24T01:38:17;26.42;;;20.90;;
55112;SDS011;41006;50.920;3.456;2023-04-24T01:38:47;27.33;;;23.23;;
55112;SDS011;41006;50.920;3.456;2023-04-24T01:39:20;27.48;;;24.65;;
55112;SDS011;41006;50.920;3.456;2023-04-24T01:39:55;27.20;;;24.25;;
55112;SDS011;41006;50.920;3.456;2023-04-24T01:40:25;31.85;;;26.10;;
55112;SDS011;41006;50.920;3.456;2023-04-24T01:41:01;27.35;;;24.38;;
55112;SDS011;41006;50.920;3.456;2023-04-24T01:41:31;26.02;;;23.23;;
55112;SDS011;41006;50.920;3.456;2023-04-24T01:42:04;27.30;;;23.00;;
55112;SDS011;41006;50.920;3.456;2023-04-24T01:42:37;27.50;;;24.58;;
55112;SDS011;41006;50.920;3.456;2023-04-24T01:43:08;26.77;;;22.25;;
55112;SDS011;41006;50.920;3.456;2023-04-24T01:43:40;26.25;;;23.48;;
55112;SDS011;41006;50.920;3.456;2023-04-24T01:44:16;27.73;;;22.13;;
55112;SDS011;41006;50.920;3.456;2023-04-24T01:44:47;24.00;;;21.50;;
55112;SDS011;41006;50.920;3.456;2023-04-24T01:45:19;28.23;;;23.13;;
55112;SDS011;41006;50.920;3.456;2023-04-24T01:45:49;26.20;;;22.27;;
55112;SDS011;41006;50.920;3.456;2023-04-24T01:46:22;27.42;;;23.23;;
55112;SDS011;41006;50.920;3.456;2023-04-24T01:46:52;26.60;;;21.50;;
55112;SDS011;41006;50.920;3.456;2023-04-24T01:47:25;27.90;;;24.63;;
55112;SDS011;41006;50.920;3.456;2023-04-24T01:47:56;27.23;;;24.30;;
55112;SDS011;41006;50.920;3.456;2023-04-24T01:48:26;28.88;;;24.83;;
55112;SDS011;41006;50.920;3.456;2023-04-24T01:49:00;26.70;;;23.63;;
55112;SDS011;41006;50.920;3.456;2023-04-24T01:49:35;26.77;;;21.23;;
55112;SDS011;41006;50.920;3.456;2023-04-24T01:50:07;28.08;;;22.83;;
55112;SDS011;41006;50.920;3.456;2023-04-24T01:50:40;25.15;;;22.35;;
55112;SDS011;41006;50.920;3.456;2023-04-24T01:51:11;25.77;;;22.40;;
55112;SDS011;41006;50.920;3.456;2023-04-24T01:51:46;28.23;;;22.13;;
55112;SDS011;41006;50.920;3.456;2023-04-24T01:52:19;28.80;;;22.00;;
55112;SDS011;41006;50.920;3.456;2023-04-24T01:52:49;26.67;;;21.13;;
55112;SDS011;41006;50.920;3.456;2023-04-24T01:53:24;29.85;;;22.02;;
55112;SDS011;41006;50.920;3.456;2023-04-24T01:53:57;29.33;;;24.02;;
55112;SDS011;41006;50.920;3.456;2023-04-24T01:54:29;29.70;;;21.45;;
55112;SDS011;41006;50.920;3.456;2023-04-24T01:54:59;28.20;;;22.15;;
55112;SDS011;41006;50.920;3.456;2023-04-24T01:55:32;31.10;;;22.40;;
55112;SDS011;41006;50.920;3.456;2023-04-24T01:56:03;27.05;;;21.33;;
55112;SDS011;41006;50.920;3.456;2023-04-24T01:56:33;32.08;;;22.98;;
55112;SDS011;41006;50.920;3.456;2023-04-24T01:57:07;32.60;;;22.13;;
55112;SDS011;41006;50.920;3.456;2023-04-24T01:57:41;27.83;;;22.95;;
55112;SDS011;41006;50.920;3.456;2023-04-24T01:58:11;25.38;;;21.10;;
55112;SDS011;41006;50.920;3.456;2023-04-24T01:58:41;29.75;;;22.15;;
55112;SDS011;41006;50.920;3.456;2023-04-24T01:59:15;28.58;;;23.17;;
55112;SDS011;41006;50.920;3.456;2023-04-24T01:59:46;30.80;;;23.13;;
55112;SDS011;41006;50.920;3.456;2023-04-24T02:00:17;33.63;;;23.48;;
55112;SDS011;41006;50.920;3.456;2023-04-24T02:00:49;28.00;;;23.45;;
55112;SDS011;41006;50.920;3.456;2023-04-24T02:01:20;30.88;;;22.40;;
55112;SDS011;41006;50.920;3.456;2023-04-24T02:01:52;29.00;;;23.33;;
55112;SDS011;41006;50.920;3.456;2023-04-24T02:02:23;28.83;;;22.75;;
55112;SDS011;41006;50.920;3.456;2023-04-24T02:02:59;28.67;;;23.13;;
55112;SDS011;41006;50.920;3.456;2023-04-24T02:03:32;32.05;;;25.50;;
55112;SDS011;41006;50.920;3.456;2023-04-24T02:04:03;27.98;;;22.83;;
55112;SDS011;41006;50.920;3.456;2023-04-24T02:04:35;29.13;;;23.33;;
55112;SDS011;41006;50.920;3.456;2023-04-24T02:05:06;30.50;;;23.45;;
55112;SDS011;41006;50.920;3.456;2023-04-24T02:05:36;29.45;;;24.92;;
55112;SDS011;41006;50.920;3.456;2023-04-24T02:06:07;33.10;;;23.20;;
55112;SDS011;41006;50.920;3.456;2023-04-24T02:06:41;25.73;;;21.88;;
55112;SDS011;41006;50.920;3.456;2023-04-24T02:07:14;28.95;;;21.90;;
55112;SDS011;41006;50.920;3.456;2023-04-24T02:07:46;32.58;;;21.67;;
55112;SDS011;41006;50.920;3.456;2023-04-24T02:08:20;31.83;;;21.83;;
55112;SDS011;41006;50.920;3.456;2023-04-24T02:08:50;30.83;;;21.70;;
55112;SDS011;41006;50.920;3.456;2023-04-24T02:09:20;30.95;;;22.02;;
55112;SDS011;41006;50.920;3.456;2023-04-24T02:09:53;27.75;;;22.20;;
55112;SDS011;41006;50.920;3.456;2023-04-24T02:10:23;29.67;;;21.02;;
55112;SDS011;41006;50.920;3.456;2023-04-24T02:10:55;32.92;;;22.88;;
55112;SDS011;41006;50.920;3.456;2023-04-24T02:11:25;32.50;;;23.73;;
55112;SDS011;41006;50.920;3.456;2023-04-24T02:11:58;33.65;;;26.30;;
55112;SDS011;41006;50.920;3.456;2023-04-24T02:12:28;32.15;;;23.00;;
55112;SDS011;41006;50.920;3.456;2023-04-24T02:13:01;33.97;;;25.27;;
55112;SDS011;41006;50.920;3.456;2023-04-24T02:13:33;28.67;;;21.60;;
55112;SDS011;41006;50.920;3.456;2023-04-24T02:14:06;31.33;;;23.92;;
55112;SDS011;41006;50.920;3.456;2023-04-24T02:14:39;30.95;;;23.45;;
55112;SDS011;41006;50.920;3.456;2023-04-24T02:15:12;31.92;;;23.58;;
55112;SDS011;41006;50.920;3.456;2023-04-24T02:15:42;33.70;;;23.85;;
55112;SDS011;41006;50.920;3.456;2023-04-24T02:16:15;32.65;;;25.17;;
55112;SDS011;41006;50.920;3.456;2023-04-24T02:16:45;34.53;;;24.65;;
55112;SDS011;41006;50.920;3.456;2023-04-24T02:17:15;29.85;;;23.77;;
55112;SDS011;41006;50.920;3.456;2023-04-24T02:17:46;31.02;;;23.55;;
55112;SDS011;41006;50.920;3.456;2023-04-24T02:18:16;33.88;;;24.50;;
55112;SDS011;41006;50.920;3.456;2023-04-24T02:18:47;33.22;;;23.92;;
55112;SDS011;41006;50.920;3.456;2023-04-24T02:19:19;30.92;;;24.27;;
55112;SDS011;41006;50.920;3.456;2023-04-24T02:19:49;35.15;;;24.00;;
55112;SDS011;41006;50.920;3.456;2023-04-24T02:20:25;32.13;;;24.38;;
55112;SDS011;41006;50.920;3.456;2023-04-24T02:20:58;31.58;;;23.35;;
55112;SDS011;41006;50.920;3.456;2023-04-24T02:21:28;27.60;;;22.55;;
55112;SDS011;41006;50.920;3.456;2023-04-24T02:21:58;31.70;;;22.92;;
55112;SDS011;41006;50.920;3.456;2023-04-24T02:22:31;33.47;;;22.30;;
55112;SDS011;41006;50.920;3.456;2023-04-24T02:23:04;32.10;;;25.25;;
55112;SDS011;41006;50.920;3.456;2023-04-24T02:23:35;34.53;;;26.48;;
55112;SDS011;41006;50.920;3.456;2023-04-24T02:24:07;31.33;;;24.20;;
55112;SDS011;41006;50.920;3.456;2023-04-24T02:24:38;33.63;;;22.95;;
55112;SDS011;41006;50.920;3.456;2023-04-24T02:25:08;30.38;;;22.42;;
55112;SDS011;41006;50.920;3.456;2023-04-24T02:25:39;32.00;;;25.08;;
55112;SDS011;41006;50.920;3.456;2023-04-24T02:26:12;29.73;;;23.10;;
55112;SDS011;41006;50.920;3.456;2023-04-24T02:26:42;32.05;;;23.60;;
55112;SDS011;41006;50.920;3.456;2023-04-24T02:27:17;29.90;;;23.80;;
55112;SDS011;41006;50.920;3.456;2023-04-24T02:27:49;28.83;;;23.77;;
55112;SDS011;41006;50.920;3.456;2023-04-24T02:28:23;31.85;;;22.42;;
55112;SDS011;41006;50.920;3.456;2023-04-24T02:28:53;28.75;;;20.23;;
55112;SDS011;41006;50.920;3.456;2023-04-24T02:29:23;32.40;;;21.95;;
55112;SDS011;41006;50.920;3.456;2023-04-24T02:29:53;29.35;;;20.67;;
55112;SDS011;41006;50.920;3.456;2023-04-24T02:30:24;25.70;;;21.13;;
55112;SDS011;41006;50.920;3.456;2023-04-24T02:30:54;26.77;;;20.35;;
55112;SDS011;41006;50.920;3.456;2023-04-24T02:31:25;25.67;;;19.38;;
55112;SDS011;41006;50.920;3.456;2023-04-24T02:31:57;22.80;;;17.63;;
55112;SDS011;41006;50.920;3.456;2023-04-24T02:32:27;24.52;;;18.48;;
55112;SDS011;41006;50.920;3.456;2023-04-24T02:32:57;23.92;;;18.25;;
55112;SDS011;41006;50.920;3.456;2023-04-24T02:33:30;23.95;;;17.48;;
55112;SDS011;41006;50.920;3.456;2023-04-24T02:34:00;20.70;;;16.88;;
55112;SDS011;41006;50.920;3.456;2023-04-24T02:34:35;20.33;;;16.80;;
55112;SDS011;41006;50.920;3.456;2023-04-24T02:35:06;19.90;;;16.48;;
55112;SDS011;41006;50.920;3.456;2023-04-24T02:35:38;22.13;;;16.42;;
55112;SDS011;41006;50.920;3.456;2023-04-24T02:36:09;17.73;;;14.43;;
55112;SDS011;41006;50.920;3.456;2023-04-24T02:36:39;20.90;;;14.68;;
55112;SDS011;41006;50.920;3.456;2023-04-24T02:37:12;25.00;;;15.55;;
55112;SDS011;41006;50.920;3.456;2023-04-24T02:37:42;16.33;;;14.40;;
55112;SDS011;41006;50.920;3.456;2023-04-24T02:38:12;21.27;;;15.05;;
55112;SDS011;41006;50.920;3.456;2023-04-24T02:38:42;19.50;;;14.95;;
55112;SDS011;41006;50.920;3.456;2023-04-24T02:39:15;20.33;;;14.55;;
55112;SDS011;41006;50.920;3.456;2023-04-24T02:39:51;19.88;;;13.30;;
55112;SDS011;41006;50.920;3.456;2023-04-24T02:40:21;18.60;;;13.70;;
55112;SDS011;41006;50.920;3.456;2023-04-24T02:40:53;16.90;;;12.82;;
55112;SDS011;41006;50.920;3.456;2023-04-24T02:41:23;16.42;;;13.52;;
55112;SDS011;41006;50.920;3.456;2023-04-24T02:41:54;17.55;;;13.57;;
55112;SDS011;41006;50.920;3.456;2023-04-24T02:42:24;18.70;;;12.57;;
55112;SDS011;41006;50.920;3.456;2023-04-24T02:42:57;16.50;;;12.30;;
55112;SDS011;41006;50.920;3.456;2023-04-24T02:43:27;17.15;;;14.00;;
55112;SDS011;41006;50.920;3.456;2023-04-24T02:43:58;16.73;;;12.70;;
55112;SDS011;41006;50.920;3.456;2023-04-24T02:44:30;18.00;;;13.00;;
55112;SDS011;41006;50.920;3.456;2023-04-24T02:45:00;14.02;;;11.65;;
55112;SDS011;41006;50.920;3.456;2023-04-24T02:45:31;16.70;;;11.48;;
55112;SDS011;41006;50.920;3.456;2023-04-24T02:46:01;15.23;;;11.13;;
55112;SDS011;41006;50.920;3.456;2023-04-24T02:46:31;18.30;;;11.70;;
55112;SDS011;41006;50.920;3.456;2023-04-24T02:47:04;14.60;;;11.07;;
55112;SDS011;41006;50.920;3.456;2023-04-24T02:47:37;13.88;;;10.85;;
55112;SDS011;41006;50.920;3.456;2023-04-24T02:48:10;15.55;;;10.18;;
55112;SDS011;41006;50.920;3.456;2023-04-24T02:48:40;15.57;;;10.27;;
55112;SDS011;41006;50.920;3.456;2023-04-24T02:49:10;16.20;;;10.35;;
55112;SDS011;41006;50.920;3.456;2023-04-24T02:49:41;13.52;;;10.75;;
55112;SDS011;41006;50.920;3.456;2023-04-24T02:50:14;13.77;;;10.73;;
55112;SDS011;41006;50.920;3.456;2023-04-24T02:50:44;12.93;;;11.52;;
55112;SDS011;41006;50.920;3.456;2023-04-24T02:51:16;16.45;;;11.07;;
55112;SDS011;41006;50.920;3.456;2023-04-24T02:51:47;14.73;;;11.27;;
55112;SDS011;41006;50.920;3.456;2023-04-24T02:52:17;12.35;;;10.75;;
55112;SDS011;41006;50.920;3.456;2023-04-24T02:52:47;15.15;;;10.80;;
55112;SDS011;41006;50.920;3.456;2023-04-24T02:53:20;16.50;;;11.05;;
55112;SDS011;41006;50.920;3.456;2023-04-24T02:53:50;14.98;;;11.35;;
55112;SDS011;41006;50.920;3.456;2023-04-24T02:54:20;16.30;;;11.77;;
55112;SDS011;41006;50.920;3.456;2023-04-24T02:54:50;14.70;;;12.05;;
55112;SDS011;41006;50.920;3.456;2023-04-24T02:55:23;17.90;;;11.57;;
55112;SDS011;41006;50.920;3.456;2023-04-24T02:55:56;17.02;;;11.30;;
55112;SDS011;41006;50.920;3.456;2023-04-24T02:56:26;16.88;;;12.23;;
55112;SDS011;41006;50.920;3.456;2023-04-24T02:56:59;17.52;;;12.15;;
55112;SDS011;41006;50.920;3.456;2023-04-24T02:57:32;16.35;;;10.52;;
55112;SDS011;41006;50.920;3.456;2023-04-24T02:58:05;18.70;;;12.18;;
55112;SDS011;41006;50.920;3.456;2023-04-24T02:58:35;12.88;;;11.00;;
55112;SDS011;41006;50.920;3.456;2023-04-24T02:59:06;14.60;;;11.02;;
55112;SDS011;41006;50.920;3.456;2023-04-24T02:59:36;15.65;;;11.00;;
55112;SDS011;41006;50.920;3.456;2023-04-24T03:00:08;14.13;;;11.98;;
55112;SDS011;41006;50.920;3.456;2023-04-24T03:00:41;12.82;;;10.98;;
55112;SDS011;41006;50.920;3.456;2023-04-24T03:01:12;14.85;;;11.32;;
55112;SDS011;41006;50.920;3.456;2023-04-24T03:01:42;18.25;;;11.07;;
55112;SDS011;41006;50.920;3.456;2023-04-24T03:02:12;13.32;;;11.00;;
55112;SDS011;41006;50.920;3.456;2023-04-24T03:02:45;11.55;;;10.32;;
55112;SDS011;41006;50.920;3.456;2023-04-24T03:03:18;15.13;;;11.02;;
55112;SDS011;41006;50.920;3.456;2023-04-24T03:03:53;16.80;;;11.60;;
55112;SDS011;41006;50.920;3.456;2023-04-24T03:04:23;12.90;;;11.27;;
55112;SDS011;41006;50.920;3.456;2023-04-24T03:04:54;15.20;;;11.63;;
55112;SDS011;41006;50.920;3.456;2023-04-24T03:05:25;12.05;;;10.75;;